Terminal Aerodrome Forecast
Issued by NWS

Home | Current Version | Previous Version | Text Only | Print | Product List | Glossary On
Versions: 1 2 3 4 5 6 7 8 9 10 11 12 13 14 15 16 17 18 19 20 21 22 23 24 25
000
FTUS44 KLIX 260520
TAFGPT
TAF
KGPT 260520Z 2606/2706 16004KT P6SM SKC
     FM261000 19005KT 3SM BR BKN015
     FM261400 18005KT P6SM BKN040
     FM261700 17007KT P6SM SCT150
     FM270400 17008KT P6SM BKN010=

USA.gov is the U.S. government's official web portal to all federal, state and local government web resources and services.